sensor_id;sensor_type;location;lat;lon;timestamp;temperature;humidity
41256;DHT22;26989;45.524;10.938;2023-11-18T00:01:35;8.40;95.00
41256;DHT22;26989;45.524;10.938;2023-11-18T00:04:02;8.20;95.30
41256;DHT22;26989;45.524;10.938;2023-11-18T00:06:29;8.40;95.00
41256;DHT22;26989;45.524;10.938;2023-11-18T00:08:56;8.40;95.00
41256;DHT22;26989;45.524;10.938;2023-11-18T00:11:23;8.40;94.90
41256;DHT22;26989;45.524;10.938;2023-11-18T00:13:50;8.30;95.10
41256;DHT22;26989;45.524;10.938;2023-11-18T00:16:17;8.30;95.10
41256;DHT22;26989;45.524;10.938;2023-11-18T00:18:45;8.20;95.40
41256;DHT22;26989;45.524;10.938;2023-11-18T00:21:12;8.20;95.40
41256;DHT22;26989;45.524;10.938;2023-11-18T00:23:39;8.20;95.20
41256;DHT22;26989;45.524;10.938;2023-11-18T00:26:06;8.20;95.30
41256;DHT22;26989;45.524;10.938;2023-11-18T00:28:33;8.20;95.30
41256;DHT22;26989;45.524;10.938;2023-11-18T00:31:00;8.20;95.40
41256;DHT22;26989;45.524;10.938;2023-11-18T00:33:27;8.10;95.70
41256;DHT22;26989;45.524;10.938;2023-11-18T00:35:54;8.10;95.80
41256;DHT22;26989;45.524;10.938;2023-11-18T00:38:21;8.20;95.50
41256;DHT22;26989;45.524;10.938;2023-11-18T00:40:48;8.00;95.60
41256;DHT22;26989;45.524;10.938;2023-11-18T00:43:15;8.00;95.70
41256;DHT22;26989;45.524;10.938;2023-11-18T00:45:42;8.00;95.80
41256;DHT22;26989;45.524;10.938;2023-11-18T00:48:10;7.90;96.00
41256;DHT22;26989;45.524;10.938;2023-11-18T00:50:37;7.70;96.30
41256;DHT22;26989;45.524;10.938;2023-11-18T00:53:04;7.70;96.50
41256;DHT22;26989;45.524;10.938;2023-11-18T00:55:32;7.80;96.30
41256;DHT22;26989;45.524;10.938;2023-11-18T00:57:59;7.90;96.10
41256;DHT22;26989;45.524;10.938;2023-11-18T01:00:26;7.90;95.90
41256;DHT22;26989;45.524;10.938;2023-11-18T01:02:53;7.90;96.00
41256;DHT22;26989;45.524;10.938;2023-11-18T01:05:21;7.80;96.30
41256;DHT22;26989;45.524;10.938;2023-11-18T01:07:48;7.90;96.40
41256;DHT22;26989;45.524;10.938;2023-11-18T01:10:16;7.90;96.30
41256;DHT22;26989;45.524;10.938;2023-11-18T01:12:43;7.80;96.30
41256;DHT22;26989;45.524;10.938;2023-11-18T01:15:12;7.90;96.20
41256;DHT22;26989;45.524;10.938;2023-11-18T01:17:39;7.90;96.10
41256;DHT22;26989;45.524;10.938;2023-11-18T01:20:07;7.90;96.10
41256;DHT22;26989;45.524;10.938;2023-11-18T01:22:38;8.00;96.10
41256;DHT22;26989;45.524;10.938;2023-11-18T01:25:06;8.00;96.20
41256;DHT22;26989;45.524;10.938;2023-11-18T01:27:35;8.00;95.80
41256;DHT22;26989;45.524;10.938;2023-11-18T01:30:02;8.10;95.70
41256;DHT22;26989;45.524;10.938;2023-11-18T01:32:31;8.10;95.60
41256;DHT22;26989;45.524;10.938;2023-11-18T01:34:58;8.20;95.40
41256;DHT22;26989;45.524;10.938;2023-11-18T01:37:26;8.30;95.50
41256;DHT22;26989;45.524;10.938;2023-11-18T01:39:53;8.20;95.60
41256;DHT22;26989;45.524;10.938;2023-11-18T01:42:19;8.40;95.30
41256;DHT22;26989;45.524;10.938;2023-11-18T01:44:47;8.40;95.20
41256;DHT22;26989;45.524;10.938;2023-11-18T01:47:14;8.50;94.70
41256;DHT22;26989;45.524;10.938;2023-11-18T01:49:43;8.60;94.40
41256;DHT22;26989;45.524;10.938;2023-11-18T01:52:10;8.50;94.80
41256;DHT22;26989;45.524;10.938;2023-11-18T01:54:39;8.50;94.80
41256;DHT22;26989;45.524;10.938;2023-11-18T01:57:06;8.60;94.50
41256;DHT22;26989;45.524;10.938;2023-11-18T01:59:36;9.30;93.10
41256;DHT22;26989;45.524;10.938;2023-11-18T02:02:04;9.40;92.60
41256;DHT22;26989;45.524;10.938;2023-11-18T02:04:32;9.60;92.30
41256;DHT22;26989;45.524;10.938;2023-11-18T02:06:59;9.50;92.30
41256;DHT22;26989;45.524;10.938;2023-11-18T02:09:30;9.80;91.80
41256;DHT22;26989;45.524;10.938;2023-11-18T02:12:00;10.10;91.40
41256;DHT22;26989;45.524;10.938;2023-11-18T02:14:32;10.20;91.20
41256;DHT22;26989;45.524;10.938;2023-11-18T02:17:02;10.40;90.80
41256;DHT22;26989;45.524;10.938;2023-11-18T02:19:30;10.40;90.80
41256;DHT22;26989;45.524;10.938;2023-11-18T02:21:58;9.90;91.60
41256;DHT22;26989;45.524;10.938;2023-11-18T02:24:30;10.00;91.50
41256;DHT22;26989;45.524;10.938;2023-11-18T02:26:58;9.60;92.20
41256;DHT22;26989;45.524;10.938;2023-11-18T02:29:35;9.30;92.80
41256;DHT22;26989;45.524;10.938;2023-11-18T02:32:30;9.50;92.30
41256;DHT22;26989;45.524;10.938;2023-11-18T02:35:24;9.70;91.80
41256;DHT22;26989;45.524;10.938;2023-11-18T02:37:54;9.90;91.70
41256;DHT22;26989;45.524;10.938;2023-11-18T02:40:41;9.80;92.00
41256;DHT22;26989;45.524;10.938;2023-11-18T02:43:11;9.50;92.50
41256;DHT22;26989;45.524;10.938;2023-11-18T02:45:39;9.60;92.20
41256;DHT22;26989;45.524;10.938;2023-11-18T02:48:09;9.70;91.90
41256;DHT22;26989;45.524;10.938;2023-11-18T02:50:36;9.60;92.20
41256;DHT22;26989;45.524;10.938;2023-11-18T02:53:03;10.00;91.40
41256;DHT22;26989;45.524;10.938;2023-11-18T02:55:30;9.80;91.70
41256;DHT22;26989;45.524;10.938;2023-11-18T02:57:57;9.80;91.80
41256;DHT22;26989;45.524;10.938;2023-11-18T03:00:24;9.90;91.50
41256;DHT22;26989;45.524;10.938;2023-11-18T03:02:51;9.90;91.30
41256;DHT22;26989;45.524;10.938;2023-11-18T03:05:19;10.00;91.20
41256;DHT22;26989;45.524;10.938;2023-11-18T03:07:48;10.30;90.80
41256;DHT22;26989;45.524;10.938;2023-11-18T03:10:20;10.00;91.20
41256;DHT22;26989;45.524;10.938;2023-11-18T03:12:48;10.00;91.20
41256;DHT22;26989;45.524;10.938;2023-11-18T03:15:16;9.90;91.40
41256;DHT22;26989;45.524;10.938;2023-11-18T03:17:44;9.90;91.10
41256;DHT22;26989;45.524;10.938;2023-11-18T03:20:12;9.30;92.70
41256;DHT22;26989;45.524;10.938;2023-11-18T03:22:46;8.90;93.40
41256;DHT22;26989;45.524;10.938;2023-11-18T03:25:14;9.00;93.10
41256;DHT22;26989;45.524;10.938;2023-11-18T03:27:41;9.20;92.60
41256;DHT22;26989;45.524;10.938;2023-11-18T03:30:09;9.40;92.30
41256;DHT22;26989;45.524;10.938;2023-11-18T03:32:37;9.00;93.30
41256;DHT22;26989;45.524;10.938;2023-11-18T03:35:05;8.70;93.70
41256;DHT22;26989;45.524;10.938;2023-11-18T03:37:40;8.60;93.90
41256;DHT22;26989;45.524;10.938;2023-11-18T03:40:13;9.00;92.90
41256;DHT22;26989;45.524;10.938;2023-11-18T03:42:42;9.00;92.80
41256;DHT22;26989;45.524;10.938;2023-11-18T03:45:09;9.20;92.30
41256;DHT22;26989;45.524;10.938;2023-11-18T03:47:37;9.40;92.00
41256;DHT22;26989;45.524;10.938;2023-11-18T03:50:04;9.40;92.20
41256;DHT22;26989;45.524;10.938;2023-11-18T03:52:32;9.20;92.60
41256;DHT22;26989;45.524;10.938;2023-11-18T03:55:03;9.20;92.50
41256;DHT22;26989;45.524;10.938;2023-11-18T03:57:31;9.10;92.60
41256;DHT22;26989;45.524;10.938;2023-11-18T03:59:58;9.10;92.70
41256;DHT22;26989;45.524;10.938;2023-11-18T04:02:24;9.30;92.30
41256;DHT22;26989;45.524;10.938;2023-11-18T04:04:52;9.00;92.80
41256;DHT22;26989;45.524;10.938;2023-11-18T04:07:20;9.00;92.60
41256;DHT22;26989;45.524;10.938;2023-11-18T04:09:48;9.20;92.20
41256;DHT22;26989;45.524;10.938;2023-11-18T04:12:16;9.10;92.30
41256;DHT22;26989;45.524;10.938;2023-11-18T04:14:43;9.00;92.60
41256;DHT22;26989;45.524;10.938;2023-11-18T04:17:10;9.60;91.40
41256;DHT22;26989;45.524;10.938;2023-11-18T04:19:37;10.00;90.80
41256;DHT22;26989;45.524;10.938;2023-11-18T04:22:05;9.90;90.80
41256;DHT22;26989;45.524;10.938;2023-11-18T04:24:33;10.00;90.60
41256;DHT22;26989;45.524;10.938;2023-11-18T04:27:01;9.60;91.50
41256;DHT22;26989;45.524;10.938;2023-11-18T04:29:28;9.20;92.40
41256;DHT22;26989;45.524;10.938;2023-11-18T04:31:56;8.80;93.00
41256;DHT22;26989;45.524;10.938;2023-11-18T04:34:24;8.80;93.00
41256;DHT22;26989;45.524;10.938;2023-11-18T04:36:51;9.20;92.20
41256;DHT22;26989;45.524;10.938;2023-11-18T04:39:18;9.10;92.40
41256;DHT22;26989;45.524;10.938;2023-11-18T04:41:47;8.80;92.80
41256;DHT22;26989;45.524;10.938;2023-11-18T04:44:14;9.00;92.60
41256;DHT22;26989;45.524;10.938;2023-11-18T04:46:43;8.80;92.70
41256;DHT22;26989;45.524;10.938;2023-11-18T04:49:11;8.80;92.60
41256;DHT22;26989;45.524;10.938;2023-11-18T04:51:38;8.70;92.90
41256;DHT22;26989;45.524;10.938;2023-11-18T04:54:06;8.50;93.20
41256;DHT22;26989;45.524;10.938;2023-11-18T04:56:34;8.60;93.20
41256;DHT22;26989;45.524;10.938;2023-11-18T04:59:04;8.60;93.10
41256;DHT22;26989;45.524;10.938;2023-11-18T05:01:32;8.40;93.40
41256;DHT22;26989;45.524;10.938;2023-11-18T05:04:00;8.50;93.30
41256;DHT22;26989;45.524;10.938;2023-11-18T05:06:27;8.30;93.60
41256;DHT22;26989;45.524;10.938;2023-11-18T05:08:54;8.20;93.70
41256;DHT22;26989;45.524;10.938;2023-11-18T05:11:21;8.10;94.30
41256;DHT22;26989;45.524;10.938;2023-11-18T05:13:48;7.90;94.60
41256;DHT22;26989;45.524;10.938;2023-11-18T05:16:16;7.80;94.70
41256;DHT22;26989;45.524;10.938;2023-11-18T05:18:43;7.90;94.40
41256;DHT22;26989;45.524;10.938;2023-11-18T05:21:10;7.80;94.70
41256;DHT22;26989;45.524;10.938;2023-11-18T05:23:37;7.50;96.00
41256;DHT22;26989;45.524;10.938;2023-11-18T05:26:05;7.40;95.50
41256;DHT22;26989;45.524;10.938;2023-11-18T05:28:33;7.70;94.90
41256;DHT22;26989;45.524;10.938;2023-11-18T05:31:00;8.00;94.40
41256;DHT22;26989;45.524;10.938;2023-11-18T05:33:30;8.00;94.30
41256;DHT22;26989;45.524;10.938;2023-11-18T05:35:58;8.20;94.00
41256;DHT22;26989;45.524;10.938;2023-11-18T05:38:25;8.10;94.10
41256;DHT22;26989;45.524;10.938;2023-11-18T05:40:55;8.20;93.90
41256;DHT22;26989;45.524;10.938;2023-11-18T05:43:30;8.10;93.80
41256;DHT22;26989;45.524;10.938;2023-11-18T05:46:05;8.30;93.60
41256;DHT22;26989;45.524;10.938;2023-11-18T05:48:48;8.30;93.40
41256;DHT22;26989;45.524;10.938;2023-11-18T05:51:20;8.30;93.40
41256;DHT22;26989;45.524;10.938;2023-11-18T05:53:48;8.90;92.10
41256;DHT22;26989;45.524;10.938;2023-11-18T05:56:16;8.70;92.20
41256;DHT22;26989;45.524;10.938;2023-11-18T05:58:45;8.80;92.30
41256;DHT22;26989;45.524;10.938;2023-11-18T06:01:16;8.70;92.20
41256;DHT22;26989;45.524;10.938;2023-11-18T06:03:44;8.50;92.50
41256;DHT22;26989;45.524;10.938;2023-11-18T06:06:14;8.40;92.70
41256;DHT22;26989;45.524;10.938;2023-11-18T06:08:48;7.70;94.80
41256;DHT22;26989;45.524;10.938;2023-11-18T06:11:15;7.40;94.70
41256;DHT22;26989;45.524;10.938;2023-11-18T06:18:49;8.30;92.80
41256;DHT22;26989;45.524;10.938;2023-11-18T06:21:19;8.40;92.60
41256;DHT22;26989;45.524;10.938;2023-11-18T06:23:47;7.60;94.50
41256;DHT22;26989;45.524;10.938;2023-11-18T06:26:15;7.70;94.00
41256;DHT22;26989;45.524;10.938;2023-11-18T06:28:44;7.40;94.90
41256;DHT22;26989;45.524;10.938;2023-11-18T06:31:11;7.00;96.50
41256;DHT22;26989;45.524;10.938;2023-11-18T06:33:43;7.00;95.50
41256;DHT22;26989;45.524;10.938;2023-11-18T06:38:41;7.90;93.70
41256;DHT22;26989;45.524;10.938;2023-11-18T06:41:10;7.70;93.90
41256;DHT22;26989;45.524;10.938;2023-11-18T06:43:41;7.90;93.50
41256;DHT22;26989;45.524;10.938;2023-11-18T06:46:19;7.80;93.70
41256;DHT22;26989;45.524;10.938;2023-11-18T06:48:50;7.50;94.60
41256;DHT22;26989;45.524;10.938;2023-11-18T06:51:21;7.50;94.60
41256;DHT22;26989;45.524;10.938;2023-11-18T06:53:51;7.70;94.20
41256;DHT22;26989;45.524;10.938;2023-11-18T06:56:21;7.70;94.20
41256;DHT22;26989;45.524;10.938;2023-11-18T06:58:48;7.70;94.00
41256;DHT22;26989;45.524;10.938;2023-11-18T07:01:15;7.10;96.30
41256;DHT22;26989;45.524;10.938;2023-11-18T07:03:46;7.50;94.60
41256;DHT22;26989;45.524;10.938;2023-11-18T07:06:20;8.30;93.20
41256;DHT22;26989;45.524;10.938;2023-11-18T07:08:54;8.50;92.50
41256;DHT22;26989;45.524;10.938;2023-11-18T07:11:21;8.50;93.20
41256;DHT22;26989;45.524;10.938;2023-11-18T07:13:48;8.80;92.90
41256;DHT22;26989;45.524;10.938;2023-11-18T07:16:25;8.80;92.90
41256;DHT22;26989;45.524;10.938;2023-11-18T07:18:52;8.80;93.40
41256;DHT22;26989;45.524;10.938;2023-11-18T07:21:20;8.90;93.50
41256;DHT22;26989;45.524;10.938;2023-11-18T07:23:47;8.90;93.50
41256;DHT22;26989;45.524;10.938;2023-11-18T07:26:19;8.90;93.70
41256;DHT22;26989;45.524;10.938;2023-11-18T07:28:46;9.10;93.30
41256;DHT22;26989;45.524;10.938;2023-11-18T07:31:13;9.10;93.50
41256;DHT22;26989;45.524;10.938;2023-11-18T07:33:40;9.20;93.70
41256;DHT22;26989;45.524;10.938;2023-11-18T07:36:11;9.40;93.20
41256;DHT22;26989;45.524;10.938;2023-11-18T07:38:39;9.50;93.10
41256;DHT22;26989;45.524;10.938;2023-11-18T07:41:06;9.80;92.80
41256;DHT22;26989;45.524;10.938;2023-11-18T07:43:35;9.80;92.80
41256;DHT22;26989;45.524;10.938;2023-11-18T07:46:03;9.60;94.40
41256;DHT22;26989;45.524;10.938;2023-11-18T07:48:30;9.20;95.80
41256;DHT22;26989;45.524;10.938;2023-11-18T07:50:58;9.10;96.50
41256;DHT22;26989;45.524;10.938;2023-11-18T07:53:24;8.90;97.80
41256;DHT22;26989;45.524;10.938;2023-11-18T07:55:56;8.80;97.20
41256;DHT22;26989;45.524;10.938;2023-11-18T07:58:24;9.00;96.80
41256;DHT22;26989;45.524;10.938;2023-11-18T08:00:51;9.00;96.40
41256;DHT22;26989;45.524;10.938;2023-11-18T08:03:17;9.00;96.70
41256;DHT22;26989;45.524;10.938;2023-11-18T08:05:45;8.90;96.40
41256;DHT22;26989;45.524;10.938;2023-11-18T08:08:13;8.90;96.50
41256;DHT22;26989;45.524;10.938;2023-11-18T08:10:44;9.00;96.40
41256;DHT22;26989;45.524;10.938;2023-11-18T08:13:11;9.50;95.60
41256;DHT22;26989;45.524;10.938;2023-11-18T08:15:40;9.80;96.00
41256;DHT22;26989;45.524;10.938;2023-11-18T08:18:08;10.20;95.50
41256;DHT22;26989;45.524;10.938;2023-11-18T08:20:37;10.30;96.20
41256;DHT22;26989;45.524;10.938;2023-11-18T08:23:04;10.40;95.20
41256;DHT22;26989;45.524;10.938;2023-11-18T08:25:32;10.50;94.90
41256;DHT22;26989;45.524;10.938;2023-11-18T08:28:01;10.60;95.20
41256;DHT22;26989;45.524;10.938;2023-11-18T08:30:28;10.60;95.10
41256;DHT22;26989;45.524;10.938;2023-11-18T08:32:55;10.70;94.70
41256;DHT22;26989;45.524;10.938;2023-11-18T08:35:22;10.80;94.50
41256;DHT22;26989;45.524;10.938;2023-11-18T08:37:49;10.90;94.30
41256;DHT22;26989;45.524;10.938;2023-11-18T08:40:18;11.20;93.90
41256;DHT22;26989;45.524;10.938;2023-11-18T08:42:51;11.30;93.50
41256;DHT22;26989;45.524;10.938;2023-11-18T08:45:20;11.40;92.50
41256;DHT22;26989;45.524;10.938;2023-11-18T08:47:58;11.40;92.80
41256;DHT22;26989;45.524;10.938;2023-11-18T08:50:26;11.40;93.60
41256;DHT22;26989;45.524;10.938;2023-11-18T08:52:53;11.40;94.00
41256;DHT22;26989;45.524;10.938;2023-11-18T08:55:28;11.40;94.60
41256;DHT22;26989;45.524;10.938;2023-11-18T08:58:11;11.20;94.90
41256;DHT22;26989;45.524;10.938;2023-11-18T09:00:58;11.00;95.50
41256;DHT22;26989;45.524;10.938;2023-11-18T09:03:32;10.80;96.40
41256;DHT22;26989;45.524;10.938;2023-11-18T09:06:05;10.70;97.00
41256;DHT22;26989;45.524;10.938;2023-11-18T09:08:35;10.70;96.90
41256;DHT22;26989;45.524;10.938;2023-11-18T09:13:33;10.80;96.60
41256;DHT22;26989;45.524;10.938;2023-11-18T09:16:04;10.70;96.60
41256;DHT22;26989;45.524;10.938;2023-11-18T09:18:39;10.70;95.90
41256;DHT22;26989;45.524;10.938;2023-11-18T09:21:09;10.80;95.40
41256;DHT22;26989;45.524;10.938;2023-11-18T09:23:43;10.90;95.10
41256;DHT22;26989;45.524;10.938;2023-11-18T09:26:10;11.00;94.50
41256;DHT22;26989;45.524;10.938;2023-11-18T09:28:38;11.00;94.50
41256;DHT22;26989;45.524;10.938;2023-11-18T09:31:06;11.20;94.20
41256;DHT22;26989;45.524;10.938;2023-11-18T09:33:41;11.30;94.20
41256;DHT22;26989;45.524;10.938;2023-11-18T09:36:20;11.50;94.30
41256;DHT22;26989;45.524;10.938;2023-11-18T09:38:48;11.50;94.40
41256;DHT22;26989;45.524;10.938;2023-11-18T09:41:16;11.60;94.50
41256;DHT22;26989;45.524;10.938;2023-11-18T09:43:45;11.70;94.30
41256;DHT22;26989;45.524;10.938;2023-11-18T09:46:15;11.60;94.10
41256;DHT22;26989;45.524;10.938;2023-11-18T09:48:48;11.70;93.50
41256;DHT22;26989;45.524;10.938;2023-11-18T09:53:53;11.60;93.50
41256;DHT22;26989;45.524;10.938;2023-11-18T10:01:57;11.70;92.20
41256;DHT22;26989;45.524;10.938;2023-11-18T10:04:24;11.70;92.00
41256;DHT22;26989;45.524;10.938;2023-11-18T10:06:55;11.80;92.10
41256;DHT22;26989;45.524;10.938;2023-11-18T10:09:24;11.80;92.40
41256;DHT22;26989;45.524;10.938;2023-11-18T10:12:24;11.90;92.10
41256;DHT22;26989;45.524;10.938;2023-11-18T10:14:51;12.00;92.00
41256;DHT22;26989;45.524;10.938;2023-11-18T10:17:19;12.10;92.20
41256;DHT22;26989;45.524;10.938;2023-11-18T10:19:57;12.20;92.20
41256;DHT22;26989;45.524;10.938;2023-11-18T10:22:28;12.10;92.60
41256;DHT22;26989;45.524;10.938;2023-11-18T10:24:57;12.00;91.60
41256;DHT22;26989;45.524;10.938;2023-11-18T10:27:25;12.20;91.30
41256;DHT22;26989;45.524;10.938;2023-11-18T10:30:02;12.30;92.10
41256;DHT22;26989;45.524;10.938;2023-11-18T10:32:30;12.20;92.70
41256;DHT22;26989;45.524;10.938;2023-11-18T10:35:04;12.10;93.40
41256;DHT22;26989;45.524;10.938;2023-11-18T10:37:36;12.10;93.70
41256;DHT22;26989;45.524;10.938;2023-11-18T10:40:10;12.10;93.90
41256;DHT22;26989;45.524;10.938;2023-11-18T10:42:41;12.10;94.50
41256;DHT22;26989;45.524;10.938;2023-11-18T10:45:23;12.10;94.60
41256;DHT22;26989;45.524;10.938;2023-11-18T10:47:51;12.00;95.30
41256;DHT22;26989;45.524;10.938;2023-11-18T10:50:22;12.20;95.70
41256;DHT22;26989;45.524;10.938;2023-11-18T10:52:52;12.20;95.90
41256;DHT22;26989;45.524;10.938;2023-11-18T10:55:19;12.10;96.30
41256;DHT22;26989;45.524;10.938;2023-11-18T10:57:46;12.10;96.20
41256;DHT22;26989;45.524;10.938;2023-11-18T11:00:13;12.10;96.80
41256;DHT22;26989;45.524;10.938;2023-11-18T11:02:58;12.10;97.50
41256;DHT22;26989;45.524;10.938;2023-11-18T11:05:30;12.10;97.80
41256;DHT22;26989;45.524;10.938;2023-11-18T11:08:03;12.30;97.20
41256;DHT22;26989;45.524;10.938;2023-11-18T11:10:32;12.30;97.10
41256;DHT22;26989;45.524;10.938;2023-11-18T11:13:01;12.40;97.40
41256;DHT22;26989;45.524;10.938;2023-11-18T11:15:30;12.40;97.70
41256;DHT22;26989;45.524;10.938;2023-11-18T11:18:18;12.30;97.70
41256;DHT22;26989;45.524;10.938;2023-11-18T11:23:21;12.40;97.10
41256;DHT22;26989;45.524;10.938;2023-11-18T11:26:10;12.40;97.20
41256;DHT22;26989;45.524;10.938;2023-11-18T11:28:49;12.50;97.30
41256;DHT22;26989;45.524;10.938;2023-11-18T11:31:37;12.50;96.40
41256;DHT22;26989;45.524;10.938;2023-11-18T11:34:19;12.50;96.10
41256;DHT22;26989;45.524;10.938;2023-11-18T11:36:48;12.50;95.40
41256;DHT22;26989;45.524;10.938;2023-11-18T11:39:19;12.60;94.30
41256;DHT22;26989;45.524;10.938;2023-11-18T11:41:53;12.60;93.60
41256;DHT22;26989;45.524;10.938;2023-11-18T11:44:24;12.70;94.50
41256;DHT22;26989;45.524;10.938;2023-11-18T11:46:59;12.60;94.40
41256;DHT22;26989;45.524;10.938;2023-11-18T11:49:36;12.60;94.60
41256;DHT22;26989;45.524;10.938;2023-11-18T11:52:18;12.70;93.60
41256;DHT22;26989;45.524;10.938;2023-11-18T11:57:33;12.70;94.00
41256;DHT22;26989;45.524;10.938;2023-11-18T12:00:09;12.80;94.10
41256;DHT22;26989;45.524;10.938;2023-11-18T12:02:50;12.90;93.90
41256;DHT22;26989;45.524;10.938;2023-11-18T12:05:18;12.80;94.00
41256;DHT22;26989;45.524;10.938;2023-11-18T12:07:47;12.90;94.40
41256;DHT22;26989;45.524;10.938;2023-11-18T12:10:15;12.90;94.50
41256;DHT22;26989;45.524;10.938;2023-11-18T12:12:48;13.00;95.00
41256;DHT22;26989;45.524;10.938;2023-11-18T12:15:54;13.10;95.00
41256;DHT22;26989;45.524;10.938;2023-11-18T12:18:24;13.10;95.30
41256;DHT22;26989;45.524;10.938;2023-11-18T12:20:52;13.40;95.20
41256;DHT22;26989;45.524;10.938;2023-11-18T12:23:23;13.50;94.90
41256;DHT22;26989;45.524;10.938;2023-11-18T12:25:52;13.60;94.80
41256;DHT22;26989;45.524;10.938;2023-11-18T12:28:29;13.60;94.80
41256;DHT22;26989;45.524;10.938;2023-11-18T12:31:41;13.60;94.60
41256;DHT22;26989;45.524;10.938;2023-11-18T12:34:09;13.70;94.20
41256;DHT22;26989;45.524;10.938;2023-11-18T12:37:00;13.70;93.60
41256;DHT22;26989;45.524;10.938;2023-11-18T12:42:45;14.10;93.30
41256;DHT22;26989;45.524;10.938;2023-11-18T12:45:42;14.30;92.90
41256;DHT22;26989;45.524;10.938;2023-11-18T12:48:14;14.40;93.00
41256;DHT22;26989;45.524;10.938;2023-11-18T12:50:42;14.50;92.60
41256;DHT22;26989;45.524;10.938;2023-11-18T12:53:12;14.40;92.70
41256;DHT22;26989;45.524;10.938;2023-11-18T12:55:41;14.40;92.60
41256;DHT22;26989;45.524;10.938;2023-11-18T12:58:09;14.50;92.50
41256;DHT22;26989;45.524;10.938;2023-11-18T13:00:40;14.50;92.60
41256;DHT22;26989;45.524;10.938;2023-11-18T13:03:09;14.60;92.80
41256;DHT22;26989;45.524;10.938;2023-11-18T13:05:37;14.60;92.70
41256;DHT22;26989;45.524;10.938;2023-11-18T13:08:04;14.60;92.60
41256;DHT22;26989;45.524;10.938;2023-11-18T13:10:32;14.50;92.90
41256;DHT22;26989;45.524;10.938;2023-11-18T13:12:59;14.50;92.90
41256;DHT22;26989;45.524;10.938;2023-11-18T13:15:27;14.60;93.40
41256;DHT22;26989;45.524;10.938;2023-11-18T13:18:03;14.60;92.90
41256;DHT22;26989;45.524;10.938;2023-11-18T13:20:34;14.50;93.20
41256;DHT22;26989;45.524;10.938;2023-11-18T13:23:02;14.40;93.10
41256;DHT22;26989;45.524;10.938;2023-11-18T13:25:36;14.40;93.20
41256;DHT22;26989;45.524;10.938;2023-11-18T13:28:08;14.40;93.20
41256;DHT22;26989;45.524;10.938;2023-11-18T13:30:37;14.50;93.30
41256;DHT22;26989;45.524;10.938;2023-11-18T13:33:07;14.50;93.60
41256;DHT22;26989;45.524;10.938;2023-11-18T13:35:35;14.50;93.40
41256;DHT22;26989;45.524;10.938;2023-11-18T13:38:03;14.50;93.60
41256;DHT22;26989;45.524;10.938;2023-11-18T13:40:45;14.50;93.90
41256;DHT22;26989;45.524;10.938;2023-11-18T13:43:13;14.60;93.10
41256;DHT22;26989;45.524;10.938;2023-11-18T13:45:41;14.50;93.30
41256;DHT22;26989;45.524;10.938;2023-11-18T13:48:11;14.60;92.50
41256;DHT22;26989;45.524;10.938;2023-11-18T13:50:41;14.70;90.10
41256;DHT22;26989;45.524;10.938;2023-11-18T13:53:10;14.50;86.50
41256;DHT22;26989;45.524;10.938;2023-11-18T13:55:37;14.50;87.40
41256;DHT22;26989;45.524;10.938;2023-11-18T13:58:06;14.50;87.90
41256;DHT22;26989;45.524;10.938;2023-11-18T14:00:33;14.50;88.70
41256;DHT22;26989;45.524;10.938;2023-11-18T14:03:00;14.40;88.40
41256;DHT22;26989;45.524;10.938;2023-11-18T14:05:27;14.40;89.70
41256;DHT22;26989;45.524;10.938;2023-11-18T14:07:55;14.30;90.20
41256;DHT22;26989;45.524;10.938;2023-11-18T14:10:35;14.30;90.50
41256;DHT22;26989;45.524;10.938;2023-11-18T14:13:07;14.30;90.70
41256;DHT22;26989;45.524;10.938;2023-11-18T14:15:38;14.30;91.60
41256;DHT22;26989;45.524;10.938;2023-11-18T14:18:07;14.10;91.80
41256;DHT22;26989;45.524;10.938;2023-11-18T14:20:37;14.00;92.00
41256;DHT22;26989;45.524;10.938;2023-11-18T14:23:04;13.90;92.40
41256;DHT22;26989;45.524;10.938;2023-11-18T14:25:34;13.80;92.90
41256;DHT22;26989;45.524;10.938;2023-11-18T14:28:01;13.70;92.90
41256;DHT22;26989;45.524;10.938;2023-11-18T14:30:29;13.60;92.60
41256;DHT22;26989;45.524;10.938;2023-11-18T14:32:57;13.50;92.40
41256;DHT22;26989;45.524;10.938;2023-11-18T14:35:23;13.40;92.70
41256;DHT22;26989;45.524;10.938;2023-11-18T14:37:55;13.40;92.90
41256;DHT22;26989;45.524;10.938;2023-11-18T14:40:23;13.40;92.50
41256;DHT22;26989;45.524;10.938;2023-11-18T14:42:51;13.40;92.90
41256;DHT22;26989;45.524;10.938;2023-11-18T14:45:19;13.30;93.10
41256;DHT22;26989;45.524;10.938;2023-11-18T14:47:46;13.20;93.10
41256;DHT22;26989;45.524;10.938;2023-11-18T14:50:18;13.20;93.50
41256;DHT22;26989;45.524;10.938;2023-11-18T14:52:50;13.20;93.30
41256;DHT22;26989;45.524;10.938;2023-11-18T14:55:27;13.20;93.50
41256;DHT22;26989;45.524;10.938;2023-11-18T14:57:55;13.10;93.60
41256;DHT22;26989;45.524;10.938;2023-11-18T15:00:22;13.00;93.70
41256;DHT22;26989;45.524;10.938;2023-11-18T15:02:53;12.80;94.10
41256;DHT22;26989;45.524;10.938;2023-11-18T15:05:25;12.70;94.10
41256;DHT22;26989;45.524;10.938;2023-11-18T15:07:54;12.50;94.40
41256;DHT22;26989;45.524;10.938;2023-11-18T15:10:23;12.40;94.80
41256;DHT22;26989;45.524;10.938;2023-11-18T15:12:52;12.10;94.70
41256;DHT22;26989;45.524;10.938;2023-11-18T15:15:26;11.90;95.20
41256;DHT22;26989;45.524;10.938;2023-11-18T15:18:03;11.70;95.60
41256;DHT22;26989;45.524;10.938;2023-11-18T15:20:31;11.60;95.50
41256;DHT22;26989;45.524;10.938;2023-11-18T15:22:58;11.50;96.10
41256;DHT22;26989;45.524;10.938;2023-11-18T15:25:25;11.40;96.40
41256;DHT22;26989;45.524;10.938;2023-11-18T15:27:53;11.20;97.50
41256;DHT22;26989;45.524;10.938;2023-11-18T15:30:23;10.90;97.90
41256;DHT22;26989;45.524;10.938;2023-11-18T15:32:52;10.70;97.90
41256;DHT22;26989;45.524;10.938;2023-11-18T15:35:19;10.70;97.50
41256;DHT22;26989;45.524;10.938;2023-11-18T15:37:48;10.60;99.30
41256;DHT22;26989;45.524;10.938;2023-11-18T15:40:16;10.60;99.40
41256;DHT22;26989;45.524;10.938;2023-11-18T15:42:48;10.50;99.90
41256;DHT22;26989;45.524;10.938;2023-11-18T15:45:19;10.70;99.80
41256;DHT22;26989;45.524;10.938;2023-11-18T15:47:47;10.60;99.90
41256;DHT22;26989;45.524;10.938;2023-11-18T15:50:17;10.50;99.90
41256;DHT22;26989;45.524;10.938;2023-11-18T15:52:46;10.30;99.90
41256;DHT22;26989;45.524;10.938;2023-11-18T15:55:18;10.10;99.90
41256;DHT22;26989;45.524;10.938;2023-11-18T15:57:46;10.10;99.90
41256;DHT22;26989;45.524;10.938;2023-11-18T16:00:24;9.90;99.90
41256;DHT22;26989;45.524;10.938;2023-11-18T16:02:54;9.60;99.90
41256;DHT22;26989;45.524;10.938;2023-11-18T16:05:28;9.40;99.90
41256;DHT22;26989;45.524;10.938;2023-11-18T16:07:55;9.20;99.90